Flight Track Log - Related Links

Times and Time Zones

All times are in EDT time to prevent confusion due to time zone crossing. See the GJS6221 flight status page for this flight to view local times or setup timezone preferences in your user account.

Time Position Orientation Groundspeed Altitude Reporting Facility
EDT Latitude Longitude Course Direction KTS MPH feet Rate Location/Type
Sun 09:53:35 AM 40.8333 -73.8667 270° West 189 217 2,200  Level New York TRACON
Sun 09:54:35 AM 40.8667 -73.9167 311° West 232 267 4,900 2,900 Climbing New York TRACON
Sun 09:55:35 AM 40.8667 -74.0000 270° West 247 284 8,000 2,750 Climbing New York TRACON
Sun 09:56:35 AM 40.8333 -74.0833 242° Southwest 272 313 10,400 2,400 Climbing New York TRACON
Sun 09:57:35 AM 40.7833 -74.1667 232° Southwest 284 327 12,800 1,654 Climbing New York TRACON
Sun 09:59:00 AM 40.5333 -74.5797 270° West  Level FlightAware Approximate
Sun 09:59:40 AM 40.6961 -74.3758 241° Southwest 328 377 15,500  Level New York Center
Sun 10:00:40 AM 40.6300 -74.4925 233° Southwest 357 411 17,400 1,537 Climbing New York Center
Sun 10:01:41 AM 40.5750 -74.5853 232° Southwest 362 417 18,600 1,261 Climbing New York Center
Sun 10:02:39 AM 40.5131 -74.6911 232° Southwest 367 422 19,900 1,311 Climbing New York Center
Sun 10:03:40 AM 40.4469 -74.8017 232° Southwest 379 436 21,200 1,279 Climbing New York Center
Sun 10:04:41 AM 40.3806 -74.9125 232° Southwest 384 442 22,500 1,261 Climbing New York Center
Sun 10:05:39 AM 40.3119 -75.0281 232° Southwest 397 457 23,700 1,169 Climbing New York Center
Sun 10:06:39 AM 40.2408 -75.1461 232° Southwest 408 470 24,800 1,091 Climbing New York Center
Sun 10:07:40 AM 40.1717 -75.2639 232° Southwest 414 476 25,900 1,082 Climbing New York Center
Sun 10:08:41 AM 40.0961 -75.3867 231° Southwest 414 476 27,000 1,210 Climbing New York Center
Sun 10:09:39 AM 40.0181 -75.5169 232° Southwest 424 488 28,300 1,210 Climbing New York Center
Sun 10:10:40 AM 39.9467 -75.6339 231° Southwest 424 488 29,400 846 Climbing New York Center
Sun 10:12:15 AM 39.8383 -75.8022 230° Southwest 432 497 30,500 784 Climbing Washington Center
Sun 10:13:13 AM 39.7672 -75.9181 231° Southwest 427 491 31,400 958 Climbing Washington Center
Sun 10:14:14 AM 39.6961 -76.0283 230° Southwest 421 484 32,400 885 Climbing Washington Center
Sun 10:15:15 AM 39.6247 -76.1411 231° Southwest 421 484 33,200 744 Climbing Washington Center
Sun 10:16:15 AM 39.5556 -76.2536 231° Southwest 414 476 33,900 667 Climbing Washington Center
Sun 10:17:12 AM 39.4819 -76.3606 228° Southwest 409 471 34,500 610 Climbing Washington Center
Sun 10:18:13 AM 39.4103 -76.4725 230° Southwest 403 464 35,100 595 Climbing Washington Center
Sun 10:19:13 AM 39.3386 -76.5792 229° Southwest 403 464 35,700 446 Climbing Washington Center
Sun 10:20:14 AM 39.2689 -76.6908 231° Southwest 403 464 36,000 149 Climbing Washington Center
Sun 10:21:14 AM 39.1969 -76.8022 230° Southwest 403 464 36,000  Level Washington Center
Sun 10:22:15 AM 39.1269 -76.9161 232° Southwest 403 464 36,000  Level Washington Center
Sun 10:23:12 AM 39.0550 -77.0217 229° Southwest 403 464 36,000  Level Washington Center
Sun 10:24:13 AM 38.9725 -77.1161 222° Southwest 403 464 36,000  Level Washington Center
Sun 10:25:13 AM 38.8858 -77.2078 219° Southwest 403 464 36,000  Level Washington Center
Sun 10:26:14 AM 38.8011 -77.3044 222° Southwest 403 464 36,000  Level Washington Center
Sun 10:27:15 AM 38.7144 -77.3956 219° Southwest 408 470 36,000  Level Washington Center
Sun 10:28:15 AM 38.6189 -77.4994 220° Southwest 413 475 36,000  Level Washington Center
Sun 10:29:13 AM 38.5319 -77.5956 221° Southwest 413 475 36,000  Level Washington Center
Sun 10:30:14 AM 38.4469 -77.6886 221° Southwest 413 475 36,000  Level Washington Center
Sun 10:31:14 AM 38.3597 -77.7814 220° Southwest 413 475 36,000  Level Washington Center
Sun 10:32:15 AM 38.2744 -77.8769 221° Southwest 413 475 36,000  Level Washington Center
Sun 10:33:12 AM 38.1872 -77.9719 221° Southwest 413 475 36,000  Level Washington Center
Sun 10:34:13 AM 38.1017 -78.0694 222° Southwest 413 475 36,000  Level Washington Center
Sun 10:35:14 AM 38.0164 -78.1642 221° Southwest 413 475 36,000  Level Washington Center
Sun 10:36:15 AM 37.9372 -78.2589 223° Southwest 408 470 36,000  Level Washington Center
Sun 10:37:12 AM 37.8581 -78.3456 221° Southwest 408 470 36,000  Level Washington Center
Sun 10:38:14 AM 37.7722 -78.4422 222° Southwest 414 476 36,000  Level Washington Center
Sun 10:39:14 AM 37.6867 -78.5361 221° Southwest 414 476 36,000  Level Washington Center
Sun 10:40:15 AM 37.5967 -78.6322 220° Southwest 420 483 36,000  Level Washington Center
Sun 10:41:13 AM 37.5000 -78.7411 222° Southwest 420 483 36,000 -151 Level Washington Center
Sun 10:42:14 AM 37.4100 -78.8339 219° Southwest 420 483 35,700 -645 Descending Washington Center
Sun 10:43:14 AM 37.3194 -78.9347 222° Southwest 425 489 34,700 -992 Descending Washington Center
Sun 10:44:27 AM 37.2119 -79.0500 221° Southwest 425 489 33,500 -992 Descending Washington Center
Sun 10:45:27 AM 37.1300 -79.1375 220° Southwest 425 489 32,500 -1,017 Descending Washington Center
Sun 10:46:25 AM 37.0417 -79.2347 221° Southwest 425 489 31,500 -958 Descending Washington Center
Sun 10:47:26 AM 36.9511 -79.3292 220° Southwest 425 489 30,600 -992 Descending Washington Center
Sun 10:48:26 AM 36.8603 -79.4286 221° Southwest 425 489 29,500 -1,210 Descending Washington Center
Sun 10:49:25 AM 36.7717 -79.5228 220° Southwest 425 489 28,200 -1,361 Descending Washington Center
Sun 10:51:40 AM 36.5628 -79.7431 220° Southwest 439 505 25,100 -1,292 Descending Atlanta Center
Sun 10:52:40 AM 36.4883 -79.8219 220° Southwest 422 486 24,000 -1,100 Descending Atlanta Center
Sun 10:53:40 AM 36.4081 -79.9086 221° Southwest 409 471 22,900 -1,000 Descending Atlanta Center
Sun 10:54:40 AM 36.3272 -79.9903 219° Southwest 393 452 22,000 -450 Descending Atlanta Center
Sun 10:55:40 AM 36.2342 -80.0747 216° Southwest 386 444 22,000 -200 Level Atlanta Center
Sun 10:56:40 AM 36.1508 -80.1431 214° Southwest 375 432 21,600 -1,300 Descending Atlanta Center
Sun 10:57:40 AM 36.0633 -80.2167 214° Southwest 375 432 19,400 -2,100 Descending Atlanta Center
Sun 10:58:40 AM 35.9822 -80.2872 215° Southwest 370 426 17,400 -2,234 Descending Atlanta Center
Sun 10:59:14 AM 35.9336 -80.3331 217° Southwest 357 411 15,900 -2,118 Descending Atlanta Center
Sun 11:00:39 AM 35.8297 -80.4222 215° Southwest 322 371 13,200 -1,192 Descending Atlanta Center
Sun 11:01:40 AM 35.7583 -80.4792 213° Southwest 315 362 13,000 -694 Descending Atlanta Center
Sun 11:02:40 AM 35.6972 -80.5253 212° Southwest 298 343 11,800 -1,721 Descending Atlanta Center
Sun 11:03:42 AM 35.6083 -80.5522 194° South 290 334 9,500 -1,900 Descending Atlanta Center
Sun 11:04:40 AM 35.5661 -80.6075 227° Southwest 243 280 8,000 -1,525 Descending Atlanta Center
Sun 11:05:40 AM 35.5264 -80.6856 238° Southwest 260 299 6,500 -1,000 Descending Atlanta Center
Sun 11:06:40 AM 35.4869 -80.7664 239° Southwest 277 319 6,000 -950 Descending Atlanta Center
Sun 11:07:40 AM 35.4433 -80.8522 238° Southwest 277 319 4,600 -1,400 Descending Atlanta Center
Sun 11:08:40 AM 35.4011 -80.9228 234° Southwest 272 313 3,200 -756 Descending Atlanta Center
Sun 11:09:47 AM 35.3414 -80.9478 199° South 194 223 3,000 -493 Descending Atlanta Center
Sun 11:10:54 AM 35.2933 -80.9444 177° South 143 165 2,100 -756 Descending Atlanta Center
Sun 11:11:54 AM 35.2536 -80.9408 176° South 137 158 1,400 -700 Descending Atlanta Center
Sun 11:13:00 AM 35.2137 -80.9491 184° South  Level Estimated
Sun 11:20:00 AM 35.2137 -80.9491 184° South  Level Estimated

Login

Don't have an account? Register now (free) for customized features, flight alerts, and more!